KFFO

Wright-Patterson AFB Airport

Dayton, Ohio, USA
METAR KFFO 170456Z AUTO 21006KT 10SM CLR 05/02 A3016 RMK AO2 SLPNO T00460016 401250007 $
Observed Flight Rules
Oct-17 @ 04:56 UTC (an hour ago) Visual Flight Rules
Wind Visibility Clouds
210° at 6 knots 10 miles
  • Clear skies
Temperatures Readings
Current 5°C / 41°F
Dewpoint 2°C / 36°F
Humidity 81%
Altimeter 30.16" Hg
Pressure 1021 hPa
Elevation 251
METAR KFFO 170456Z AUTO 21006KT 10SM CLR 05/02 A3016 RMK AO2 SLPNO T00460016 401250007 $
Observed Flight Rules
Oct-17 @ 04:56 UTC
(an hour ago)
VFR
Wind Visibility
210° at 6 knots 10 miles
Clouds
  • Clear skies
Temperature Dewpoint
5°C / 41°F 2°C / 36°F
Humidity Altimeter Pressure
81% 30.16" Hg 1021 hPa